ADN75C EDDN-LEPA
Flight info
| Callsign | ADN75C |
|---|---|
| Flight time | 2h 12m |
| Altitude | 30000 |
| Route | BOLSI1G BOLSI Y166 DKB N869 TEDGO/N0411F290 N869 NATOR DCT LUTIX DCT BENOT DCT NEMOS DCT GEVEA DCT INCUS DCT BALSI DCT RETNO DCT TUPOX DCT MTG DCT DIVKO DCT VATIR DCT PIVUS DCT BODEQ DCT VERSO L129 LUNIK |
| Aircraft | J328/M-SDGHIRWYZ/LB1 |
Departure
| Time | 2026-05-05 13:49 |
|---|---|
| Airport | Nuremberg Airport (EDDN) |
Arrival
| Time | 2026-05-05 16:02 |
|---|---|
| Airport | Palma de Mallorca Airport (LEPA) |
| Time | Latitude | Longitude | Altitude | Speed | Heading |
|---|---|---|---|---|---|
| 2026-05-05 13:19 | 49.49459 | 11.07171 | 1026 ft | 0 kts | 10° |
| 2026-05-05 13:36 | 49.49465 | 11.07173 | 1026 ft | 2 kts | 10° |
| 2026-05-05 13:36 | 49.49477 | 11.07176 | 1044 ft | 2 kts | 11° |
| 2026-05-05 13:36 | 49.49487 | 11.07182 | 1006 ft | 2 kts | 25° |
| 2026-05-05 13:36 | 49.49499 | 11.07187 | 1022 ft | 2 kts | 11° |
| 2026-05-05 13:37 | 49.49503 | 11.07188 | 1023 ft | 0 kts | 10° |
| 2026-05-05 13:44 | 49.49517 | 11.07192 | 1023 ft | 7 kts | 9° |
| 2026-05-05 13:44 | 49.49599 | 11.07212 | 1025 ft | 13 kts | 9° |
| 2026-05-05 13:45 | 49.49632 | 11.07245 | 1022 ft | 5 kts | 73° |
| 2026-05-05 13:45 | 49.49630 | 11.07309 | 1022 ft | 10 kts | 99° |
| 2026-05-05 13:45 | 49.49616 | 11.07461 | 1022 ft | 19 kts | 100° |
| 2026-05-05 13:45 | 49.49594 | 11.07688 | 1026 ft | 21 kts | 98° |
| 2026-05-05 13:46 | 49.49573 | 11.07899 | 1025 ft | 19 kts | 99° |
| 2026-05-05 13:46 | 49.49551 | 11.08096 | 1027 ft | 18 kts | 98° |
| 2026-05-05 13:46 | 49.49536 | 11.08275 | 1028 ft | 9 kts | 97° |
| 2026-05-05 13:46 | 49.49535 | 11.08285 | 1028 ft | 2 kts | 95° |
| 2026-05-05 13:47 | 49.49546 | 11.08336 | 1028 ft | 9 kts | 44° |
| 2026-05-05 13:47 | 49.49610 | 11.08378 | 1033 ft | 9 kts | 44° |
| 2026-05-05 13:47 | 49.49644 | 11.08443 | 1034 ft | 7 kts | 53° |
| 2026-05-05 13:47 | 49.49682 | 11.08524 | 1035 ft | 13 kts | 49° |
| 2026-05-05 13:48 | 49.49755 | 11.08573 | 1037 ft | 10 kts | 8° |
| 2026-05-05 13:48 | 49.49799 | 11.08531 | 1037 ft | 6 kts | 285° |
| 2026-05-05 13:48 | 49.49812 | 11.08408 | 1035 ft | 47 kts | 278° |
| 2026-05-05 13:48 | 49.49900 | 11.07449 | 1073 ft | 123 kts | 279° |
| 2026-05-05 13:49 | 49.50046 | 11.05960 | 1367 ft | 154 kts | 280° |
| 2026-05-05 13:49 | 49.50234 | 11.04317 | 2196 ft | 154 kts | 282° |
| 2026-05-05 13:49 | 49.50445 | 11.02541 | 2711 ft | 179 kts | 279° |
| 2026-05-05 13:49 | 49.50645 | 11.00609 | 3306 ft | 197 kts | 278° |
| 2026-05-05 13:50 | 49.50864 | 10.98324 | 3840 ft | 237 kts | 278° |
| 2026-05-05 13:50 | 49.51114 | 10.95643 | 4347 ft | 258 kts | 278° |
| 2026-05-05 13:50 | 49.51084 | 10.92883 | 4858 ft | 263 kts | 253° |
| 2026-05-05 13:50 | 49.50413 | 10.90211 | 5376 ft | 270 kts | 247° |
| 2026-05-05 13:51 | 49.49704 | 10.87573 | 5908 ft | 261 kts | 246° |
| 2026-05-05 13:51 | 49.48975 | 10.85027 | 6421 ft | 265 kts | 244° |
| 2026-05-05 13:51 | 49.48171 | 10.82410 | 6958 ft | 270 kts | 243° |
| 2026-05-05 13:51 | 49.47382 | 10.79894 | 7480 ft | 252 kts | 243° |
| 2026-05-05 13:52 | 49.46614 | 10.77567 | 8085 ft | 236 kts | 233° |
| 2026-05-05 13:52 | 49.45352 | 10.76139 | 8687 ft | 230 kts | 192° |
| 2026-05-05 13:52 | 49.43762 | 10.75934 | 9304 ft | 225 kts | 181° |
| 2026-05-05 13:52 | 49.42213 | 10.75871 | 9916 ft | 233 kts | 181° |
| 2026-05-05 13:53 | 49.40505 | 10.75867 | 10532 ft | 258 kts | 180° |
| 2026-05-05 13:53 | 49.38631 | 10.75915 | 11164 ft | 279 kts | 179° |
| 2026-05-05 13:53 | 49.36636 | 10.75964 | 11789 ft | 295 kts | 180° |
| 2026-05-05 13:53 | 49.34548 | 10.76010 | 12348 ft | 306 kts | 180° |
| 2026-05-05 13:54 | 49.32406 | 10.76027 | 12972 ft | 309 kts | 180° |
| 2026-05-05 13:54 | 49.30247 | 10.76037 | 13645 ft | 313 kts | 180° |
| 2026-05-05 13:54 | 49.28058 | 10.76012 | 14240 ft | 316 kts | 181° |
| 2026-05-05 13:54 | 49.25855 | 10.75941 | 14847 ft | 317 kts | 185° |
| 2026-05-05 13:55 | 49.23766 | 10.74936 | 15384 ft | 320 kts | 213° |
| 2026-05-05 13:55 | 49.22264 | 10.72436 | 15916 ft | 326 kts | 240° |
| 2026-05-05 13:55 | 49.21551 | 10.69114 | 16433 ft | 332 kts | 254° |
| 2026-05-05 13:55 | 49.21048 | 10.65653 | 16894 ft | 335 kts | 255° |
| 2026-05-05 13:56 | 49.20555 | 10.62163 | 17383 ft | 337 kts | 255° |
| 2026-05-05 13:56 | 49.20064 | 10.58637 | 17848 ft | 340 kts | 255° |
| 2026-05-05 13:56 | 49.19555 | 10.55101 | 18308 ft | 341 kts | 254° |
| 2026-05-05 13:56 | 49.19020 | 10.51602 | 18708 ft | 343 kts | 253° |
| 2026-05-05 13:57 | 49.18451 | 10.48040 | 19121 ft | 345 kts | 252° |
| 2026-05-05 13:57 | 49.17855 | 10.44478 | 19549 ft | 346 kts | 252° |
| 2026-05-05 13:57 | 49.17247 | 10.40900 | 19980 ft | 349 kts | 252° |
| 2026-05-05 13:57 | 49.16633 | 10.37297 | 20408 ft | 351 kts | 252° |
| 2026-05-05 13:58 | 49.16014 | 10.33677 | 20829 ft | 353 kts | 252° |
| 2026-05-05 13:58 | 49.15399 | 10.30079 | 21213 ft | 355 kts | 251° |
| 2026-05-05 13:58 | 49.14739 | 10.26436 | 21587 ft | 356 kts | 248° |
| 2026-05-05 13:58 | 49.13634 | 10.23071 | 21988 ft | 353 kts | 234° |
| 2026-05-05 13:59 | 49.10755 | 10.16962 | 22812 ft | 356 kts | 229° |
| 2026-05-05 13:59 | 49.09209 | 10.13983 | 23214 ft | 359 kts | 229° |
| 2026-05-05 14:00 | 49.06045 | 10.08048 | 23927 ft | 362 kts | 228° |
| 2026-05-05 14:00 | 49.04987 | 10.06080 | 24151 ft | 363 kts | 227° |
| 2026-05-05 14:00 | 49.02847 | 10.02079 | 24667 ft | 363 kts | 228° |
| 2026-05-05 14:00 | 49.01293 | 9.99109 | 25023 ft | 364 kts | 229° |
| 2026-05-05 14:01 | 48.99746 | 9.96037 | 25314 ft | 368 kts | 230° |
| 2026-05-05 14:01 | 48.98218 | 9.92885 | 25634 ft | 368 kts | 229° |
| 2026-05-05 14:01 | 48.96603 | 9.89852 | 25978 ft | 368 kts | 226° |
| 2026-05-05 14:01 | 48.94941 | 9.86871 | 26282 ft | 370 kts | 226° |
| 2026-05-05 14:02 | 48.93252 | 9.83890 | 26566 ft | 372 kts | 226° |
| 2026-05-05 14:02 | 48.91565 | 9.80881 | 26864 ft | 374 kts | 226° |
| 2026-05-05 14:02 | 48.89891 | 9.77852 | 27157 ft | 375 kts | 227° |
| 2026-05-05 14:02 | 48.88225 | 9.74783 | 27435 ft | 377 kts | 227° |
| 2026-05-05 14:03 | 48.86557 | 9.71693 | 27705 ft | 379 kts | 227° |
| 2026-05-05 14:03 | 48.85213 | 9.69197 | 27924 ft | 381 kts | 227° |
| 2026-05-05 14:03 | 48.83517 | 9.66041 | 28180 ft | 383 kts | 227° |
| 2026-05-05 14:03 | 48.81844 | 9.62920 | 28439 ft | 384 kts | 227° |
| 2026-05-05 14:04 | 48.80151 | 9.59765 | 28679 ft | 386 kts | 227° |
| 2026-05-05 14:04 | 48.78475 | 9.56635 | 28937 ft | 388 kts | 227° |
| 2026-05-05 14:04 | 48.76781 | 9.53466 | 29175 ft | 390 kts | 227° |
| 2026-05-05 14:04 | 48.75057 | 9.50253 | 29415 ft | 391 kts | 227° |
| 2026-05-05 14:05 | 48.73316 | 9.47062 | 29644 ft | 393 kts | 226° |
| 2026-05-05 14:05 | 48.71567 | 9.43868 | 29875 ft | 395 kts | 227° |
| 2026-05-05 14:05 | 48.69826 | 9.40646 | 30097 ft | 396 kts | 227° |
| 2026-05-05 14:05 | 48.68065 | 9.37413 | 30308 ft | 397 kts | 226° |
| 2026-05-05 14:06 | 48.66310 | 9.34189 | 30515 ft | 398 kts | 227° |
| 2026-05-05 14:06 | 48.64553 | 9.30955 | 30716 ft | 399 kts | 226° |
| 2026-05-05 14:06 | 48.62785 | 9.27712 | 30900 ft | 400 kts | 227° |
| 2026-05-05 14:06 | 48.61077 | 9.24371 | 31081 ft | 402 kts | 229° |
| 2026-05-05 14:07 | 48.59425 | 9.20953 | 31270 ft | 403 kts | 230° |
| 2026-05-05 14:07 | 48.57804 | 9.17482 | 31440 ft | 405 kts | 231° |
| 2026-05-05 14:07 | 48.56211 | 9.14041 | 31621 ft | 405 kts | 231° |
| 2026-05-05 14:07 | 48.54578 | 9.10564 | 31754 ft | 407 kts | 230° |
| 2026-05-05 14:08 | 48.51254 | 9.03554 | 31840 ft | 413 kts | 230° |
| 2026-05-05 14:08 | 48.49571 | 9.00022 | 31968 ft | 414 kts | 230° |
| 2026-05-05 14:08 | 48.47889 | 8.96490 | 32112 ft | 415 kts | 230° |
| 2026-05-05 14:09 | 48.46205 | 8.92940 | 32252 ft | 416 kts | 231° |
| 2026-05-05 14:09 | 48.44522 | 8.89385 | 32370 ft | 416 kts | 230° |
| 2026-05-05 14:09 | 48.42879 | 8.85931 | 32466 ft | 397 kts | 230° |
| 2026-05-05 14:09 | 48.41266 | 8.82546 | 32621 ft | 398 kts | 230° |
| 2026-05-05 14:10 | 48.39671 | 8.79207 | 32792 ft | 399 kts | 230° |
| 2026-05-05 14:10 | 48.38041 | 8.75809 | 32948 ft | 399 kts | 230° |
| 2026-05-05 14:10 | 48.36411 | 8.72417 | 33104 ft | 400 kts | 230° |
| 2026-05-05 14:10 | 48.34777 | 8.69018 | 33241 ft | 402 kts | 231° |
| 2026-05-05 14:11 | 48.33153 | 8.65592 | 33385 ft | 403 kts | 231° |
| 2026-05-05 14:11 | 48.31512 | 8.62165 | 33507 ft | 404 kts | 230° |
| 2026-05-05 14:11 | 48.29871 | 8.58771 | 33639 ft | 405 kts | 230° |
| 2026-05-05 14:11 | 48.28214 | 8.55335 | 33749 ft | 406 kts | 231° |
| 2026-05-05 14:12 | 48.24891 | 8.48416 | 33824 ft | 412 kts | 231° |
| 2026-05-05 14:12 | 48.21540 | 8.41454 | 33833 ft | 403 kts | 231° |
| 2026-05-05 14:13 | 48.19910 | 8.38104 | 33824 ft | 392 kts | 230° |
| 2026-05-05 14:13 | 48.18266 | 8.34925 | 33815 ft | 380 kts | 225° |
| 2026-05-05 14:13 | 48.16428 | 8.32179 | 33817 ft | 368 kts | 218° |
| 2026-05-05 14:13 | 48.14488 | 8.29815 | 33817 ft | 357 kts | 214° |
| 2026-05-05 14:14 | 48.12502 | 8.27683 | 33818 ft | 346 kts | 212° |
| 2026-05-05 14:14 | 48.10512 | 8.25690 | 33821 ft | 344 kts | 211° |
| 2026-05-05 14:14 | 48.06454 | 8.21829 | 33833 ft | 347 kts | 210° |
| 2026-05-05 14:15 | 48.02355 | 8.17947 | 33839 ft | 350 kts | 210° |
| 2026-05-05 14:15 | 47.98229 | 8.14040 | 33844 ft | 353 kts | 211° |
| 2026-05-05 14:16 | 47.94116 | 8.10070 | 33847 ft | 356 kts | 211° |
| 2026-05-05 14:16 | 47.89931 | 8.06049 | 33850 ft | 359 kts | 211° |
| 2026-05-05 14:17 | 47.85705 | 8.02013 | 33849 ft | 363 kts | 211° |
| 2026-05-05 14:17 | 47.81433 | 7.97929 | 33860 ft | 366 kts | 211° |
| 2026-05-05 14:18 | 47.77181 | 7.93884 | 33844 ft | 370 kts | 211° |
| 2026-05-05 14:18 | 47.72851 | 7.89782 | 33852 ft | 373 kts | 211° |
| 2026-05-05 14:19 | 47.68449 | 7.85631 | 33852 ft | 377 kts | 211° |
| 2026-05-05 14:19 | 47.63993 | 7.81447 | 33850 ft | 380 kts | 211° |
| 2026-05-05 14:20 | 47.59523 | 7.77269 | 33852 ft | 383 kts | 211° |
| 2026-05-05 14:20 | 47.55016 | 7.73003 | 33854 ft | 386 kts | 211° |
| 2026-05-05 14:21 | 47.50473 | 7.68721 | 33836 ft | 388 kts | 211° |
| 2026-05-05 14:21 | 47.45903 | 7.64419 | 33849 ft | 390 kts | 212° |
| 2026-05-05 14:22 | 47.42081 | 7.60841 | 33838 ft | 391 kts | 212° |
| 2026-05-05 14:22 | 47.37476 | 7.56523 | 33846 ft | 392 kts | 211° |
| 2026-05-05 14:23 | 47.32876 | 7.52228 | 33862 ft | 391 kts | 212° |
| 2026-05-05 14:23 | 47.28301 | 7.47956 | 33855 ft | 391 kts | 212° |
| 2026-05-05 14:24 | 47.23703 | 7.43689 | 33865 ft | 390 kts | 212° |
| 2026-05-05 14:24 | 47.19194 | 7.39478 | 33888 ft | 390 kts | 214° |
| 2026-05-05 14:25 | 47.15112 | 7.34243 | 33879 ft | 390 kts | 225° |
| 2026-05-05 14:25 | 47.11569 | 7.28178 | 33872 ft | 391 kts | 230° |
| 2026-05-05 14:26 | 47.08217 | 7.21893 | 33871 ft | 391 kts | 230° |
| 2026-05-05 14:26 | 47.04853 | 7.15626 | 33883 ft | 391 kts | 230° |
| 2026-05-05 14:27 | 47.01493 | 7.09419 | 33867 ft | 391 kts | 230° |
| 2026-05-05 14:27 | 46.98109 | 7.03188 | 33870 ft | 390 kts | 230° |
| 2026-05-05 14:28 | 46.94716 | 6.96981 | 33871 ft | 390 kts | 230° |
| 2026-05-05 14:28 | 46.91220 | 6.90937 | 33874 ft | 388 kts | 224° |
| 2026-05-05 14:29 | 46.87188 | 6.85700 | 33873 ft | 387 kts | 219° |
| 2026-05-05 14:29 | 46.82984 | 6.80762 | 33875 ft | 386 kts | 218° |
| 2026-05-05 14:30 | 46.78787 | 6.75846 | 33886 ft | 386 kts | 219° |
| 2026-05-05 14:30 | 46.74633 | 6.70946 | 33873 ft | 386 kts | 219° |
| 2026-05-05 14:31 | 46.70455 | 6.66023 | 33865 ft | 385 kts | 219° |
| 2026-05-05 14:31 | 46.66287 | 6.61127 | 33868 ft | 385 kts | 219° |
| 2026-05-05 14:32 | 46.62133 | 6.56213 | 33869 ft | 384 kts | 219° |
| 2026-05-05 14:32 | 46.58000 | 6.51344 | 33869 ft | 383 kts | 219° |
| 2026-05-05 14:33 | 46.53860 | 6.46467 | 33865 ft | 383 kts | 219° |
| 2026-05-05 14:33 | 46.49720 | 6.41606 | 33874 ft | 382 kts | 219° |
| 2026-05-05 14:34 | 46.45606 | 6.36787 | 33881 ft | 382 kts | 219° |
| 2026-05-05 14:34 | 46.41481 | 6.31970 | 33883 ft | 381 kts | 219° |
| 2026-05-05 14:35 | 46.37349 | 6.27147 | 33890 ft | 380 kts | 219° |
| 2026-05-05 14:35 | 46.34104 | 6.23357 | 33897 ft | 380 kts | 219° |
| 2026-05-05 14:36 | 46.31586 | 6.20426 | 33905 ft | 380 kts | 219° |
| 2026-05-05 14:36 | 46.28658 | 6.17022 | 33901 ft | 379 kts | 219° |
| 2026-05-05 14:37 | 46.25433 | 6.14146 | 33901 ft | 381 kts | 205° |
| 2026-05-05 14:37 | 46.21945 | 6.12514 | 33904 ft | 383 kts | 197° |
| 2026-05-05 14:38 | 46.17851 | 6.11368 | 33898 ft | 385 kts | 193° |
| 2026-05-05 14:38 | 46.12961 | 6.10377 | 33900 ft | 385 kts | 192° |
| 2026-05-05 14:39 | 46.07653 | 6.09329 | 33899 ft | 384 kts | 192° |
| 2026-05-05 14:39 | 46.02389 | 6.08223 | 33911 ft | 384 kts | 193° |
| 2026-05-05 14:40 | 45.97101 | 6.07032 | 33904 ft | 383 kts | 193° |
| 2026-05-05 14:40 | 45.91825 | 6.05846 | 33897 ft | 383 kts | 193° |
| 2026-05-05 14:41 | 45.86560 | 6.04682 | 33894 ft | 382 kts | 194° |
| 2026-05-05 14:41 | 45.81301 | 6.03541 | 33903 ft | 382 kts | 194° |
| 2026-05-05 14:42 | 45.76072 | 6.02424 | 33873 ft | 382 kts | 193° |
| 2026-05-05 14:42 | 45.70834 | 6.01260 | 33889 ft | 381 kts | 194° |
| 2026-05-05 14:43 | 45.65601 | 6.00098 | 33878 ft | 380 kts | 194° |
| 2026-05-05 14:43 | 45.60370 | 5.98956 | 33878 ft | 379 kts | 194° |
| 2026-05-05 14:44 | 45.55156 | 5.97805 | 33889 ft | 379 kts | 194° |
| 2026-05-05 14:44 | 45.49945 | 5.96654 | 33876 ft | 378 kts | 194° |
| 2026-05-05 14:45 | 45.44814 | 5.95347 | 33857 ft | 375 kts | 197° |
| 2026-05-05 14:45 | 45.39722 | 5.93767 | 33877 ft | 373 kts | 198° |
| 2026-05-05 14:46 | 45.34659 | 5.92132 | 33889 ft | 373 kts | 198° |
| 2026-05-05 14:46 | 45.29596 | 5.90557 | 33879 ft | 372 kts | 198° |
| 2026-05-05 14:47 | 45.24583 | 5.88990 | 33889 ft | 370 kts | 198° |
| 2026-05-05 14:47 | 45.19551 | 5.87430 | 33886 ft | 369 kts | 198° |
| 2026-05-05 14:48 | 45.14533 | 5.85864 | 33905 ft | 369 kts | 198° |
| 2026-05-05 14:48 | 45.09519 | 5.84310 | 33911 ft | 369 kts | 198° |
| 2026-05-05 14:49 | 45.04499 | 5.82763 | 33914 ft | 369 kts | 198° |
| 2026-05-05 14:49 | 45.01991 | 5.81978 | 33805 ft | 368 kts | 198° |
| 2026-05-05 14:49 | 44.99489 | 5.81218 | 33882 ft | 366 kts | 198° |
| 2026-05-05 14:50 | 44.94533 | 5.79679 | 33897 ft | 366 kts | 199° |
| 2026-05-05 14:50 | 44.89584 | 5.78146 | 33903 ft | 365 kts | 199° |
| 2026-05-05 14:51 | 44.86209 | 5.77106 | 33906 ft | 365 kts | 198° |
| 2026-05-05 14:51 | 44.83182 | 5.76194 | 33904 ft | 365 kts | 198° |
| 2026-05-05 14:52 | 44.79280 | 5.75034 | 33907 ft | 364 kts | 198° |
| 2026-05-05 14:52 | 44.74318 | 5.73521 | 33887 ft | 363 kts | 198° |
| 2026-05-05 14:53 | 44.69380 | 5.72017 | 33904 ft | 362 kts | 199° |
| 2026-05-05 14:53 | 44.64450 | 5.70511 | 33917 ft | 362 kts | 199° |
| 2026-05-05 14:54 | 44.59521 | 5.68994 | 33911 ft | 363 kts | 198° |
| 2026-05-05 14:54 | 44.54593 | 5.67492 | 33919 ft | 363 kts | 199° |
| 2026-05-05 14:55 | 44.49678 | 5.65993 | 33927 ft | 363 kts | 199° |
| 2026-05-05 14:55 | 44.44726 | 5.64487 | 33954 ft | 364 kts | 198° |
| 2026-05-05 14:56 | 44.39749 | 5.63004 | 33921 ft | 365 kts | 198° |
| 2026-05-05 14:56 | 44.34968 | 5.60951 | 33932 ft | 360 kts | 206° |
| 2026-05-05 14:57 | 44.30300 | 5.58361 | 33928 ft | 359 kts | 206° |
| 2026-05-05 14:57 | 44.25754 | 5.55825 | 33906 ft | 358 kts | 206° |
| 2026-05-05 14:58 | 44.21123 | 5.53240 | 33912 ft | 358 kts | 206° |
| 2026-05-05 14:58 | 44.16535 | 5.50717 | 33901 ft | 358 kts | 206° |
| 2026-05-05 14:59 | 44.11899 | 5.48194 | 33920 ft | 357 kts | 206° |
| 2026-05-05 14:59 | 44.07265 | 5.45679 | 33910 ft | 357 kts | 206° |
| 2026-05-05 15:00 | 44.03428 | 5.43602 | 33910 ft | 357 kts | 206° |
| 2026-05-05 15:00 | 43.98037 | 5.40682 | 33904 ft | 356 kts | 206° |
| 2026-05-05 15:01 | 43.93415 | 5.38174 | 33915 ft | 356 kts | 206° |
| 2026-05-05 15:01 | 43.88955 | 5.35767 | 33907 ft | 356 kts | 206° |
| 2026-05-05 15:02 | 43.85389 | 5.33859 | 33902 ft | 355 kts | 206° |
| 2026-05-05 15:02 | 43.81046 | 5.31502 | 33903 ft | 355 kts | 206° |
| 2026-05-05 15:03 | 43.76440 | 5.29029 | 33907 ft | 355 kts | 206° |
| 2026-05-05 15:03 | 43.71830 | 5.26553 | 33897 ft | 355 kts | 206° |
| 2026-05-05 15:04 | 43.67233 | 5.24088 | 33901 ft | 353 kts | 206° |
| 2026-05-05 15:04 | 43.62645 | 5.21630 | 33905 ft | 353 kts | 206° |
| 2026-05-05 15:05 | 43.55855 | 5.17996 | 33903 ft | 352 kts | 206° |
| 2026-05-05 15:06 | 43.51281 | 5.15558 | 33905 ft | 352 kts | 206° |
| 2026-05-05 15:06 | 43.46709 | 5.13126 | 33902 ft | 352 kts | 206° |
| 2026-05-05 15:07 | 43.42152 | 5.10703 | 33899 ft | 351 kts | 206° |
| 2026-05-05 15:07 | 43.38425 | 5.08530 | 33899 ft | 347 kts | 213° |
| 2026-05-05 15:08 | 43.34419 | 5.04985 | 33911 ft | 344 kts | 217° |
| 2026-05-05 15:08 | 43.32085 | 5.02724 | 33910 ft | 344 kts | 217° |
| 2026-05-05 15:09 | 43.29719 | 5.00430 | 33904 ft | 344 kts | 217° |
| 2026-05-05 15:09 | 43.27327 | 4.98117 | 33907 ft | 344 kts | 217° |
| 2026-05-05 15:10 | 43.24466 | 4.95417 | 33905 ft | 344 kts | 217° |
| 2026-05-05 15:10 | 43.20750 | 4.91949 | 33901 ft | 343 kts | 217° |
| 2026-05-05 15:11 | 43.16806 | 4.88245 | 33905 ft | 343 kts | 217° |
| 2026-05-05 15:11 | 43.12898 | 4.84588 | 33904 ft | 342 kts | 217° |
| 2026-05-05 15:12 | 43.08966 | 4.80918 | 33904 ft | 342 kts | 217° |
| 2026-05-05 15:12 | 43.05030 | 4.77271 | 33901 ft | 342 kts | 215° |
| 2026-05-05 15:13 | 43.00891 | 4.74042 | 33901 ft | 343 kts | 212° |
| 2026-05-05 15:13 | 42.96712 | 4.70976 | 33899 ft | 342 kts | 212° |
| 2026-05-05 15:14 | 42.92588 | 4.67910 | 33904 ft | 342 kts | 212° |
| 2026-05-05 15:14 | 42.88358 | 4.64758 | 33906 ft | 341 kts | 212° |
| 2026-05-05 15:15 | 42.84208 | 4.61635 | 33900 ft | 340 kts | 212° |
| 2026-05-05 15:15 | 42.80060 | 4.58504 | 33895 ft | 340 kts | 213° |
| 2026-05-05 15:16 | 42.75914 | 4.55388 | 33897 ft | 340 kts | 212° |
| 2026-05-05 15:16 | 42.71799 | 4.52296 | 33902 ft | 340 kts | 213° |
| 2026-05-05 15:17 | 42.67661 | 4.49194 | 33900 ft | 339 kts | 212° |
| 2026-05-05 15:17 | 42.63522 | 4.46092 | 33894 ft | 339 kts | 213° |
| 2026-05-05 15:18 | 42.59391 | 4.43001 | 33899 ft | 339 kts | 212° |
| 2026-05-05 15:18 | 42.55291 | 4.39942 | 33898 ft | 339 kts | 212° |
| 2026-05-05 15:19 | 42.51159 | 4.36859 | 33892 ft | 338 kts | 212° |
| 2026-05-05 15:19 | 42.47025 | 4.33785 | 33897 ft | 338 kts | 212° |
| 2026-05-05 15:20 | 42.42887 | 4.30701 | 33895 ft | 338 kts | 212° |
| 2026-05-05 15:20 | 42.38757 | 4.27643 | 33897 ft | 338 kts | 212° |
| 2026-05-05 15:21 | 42.34663 | 4.24612 | 33522 ft | 335 kts | 212° |
| 2026-05-05 15:21 | 42.32623 | 4.23082 | 33007 ft | 333 kts | 213° |
| 2026-05-05 15:21 | 42.30620 | 4.21590 | 32658 ft | 324 kts | 213° |
| 2026-05-05 15:21 | 42.28672 | 4.20133 | 32305 ft | 315 kts | 213° |
| 2026-05-05 15:22 | 42.26780 | 4.18724 | 31955 ft | 307 kts | 213° |
| 2026-05-05 15:22 | 42.24936 | 4.17359 | 31613 ft | 298 kts | 213° |
| 2026-05-05 15:22 | 42.23138 | 4.16039 | 31271 ft | 290 kts | 213° |
| 2026-05-05 15:22 | 42.21382 | 4.14764 | 30930 ft | 282 kts | 213° |
| 2026-05-05 15:23 | 42.19672 | 4.13535 | 30592 ft | 275 kts | 213° |
| 2026-05-05 15:23 | 42.17962 | 4.12287 | 30286 ft | 288 kts | 214° |
| 2026-05-05 15:23 | 42.16159 | 4.10949 | 29989 ft | 304 kts | 213° |
| 2026-05-05 15:23 | 42.14253 | 4.09548 | 29644 ft | 319 kts | 213° |
| 2026-05-05 15:24 | 42.12254 | 4.08073 | 29308 ft | 334 kts | 213° |
| 2026-05-05 15:24 | 42.10173 | 4.06529 | 28970 ft | 349 kts | 213° |
| 2026-05-05 15:24 | 42.08038 | 4.04935 | 28639 ft | 362 kts | 213° |
| 2026-05-05 15:24 | 42.05797 | 4.03268 | 28305 ft | 371 kts | 213° |
| 2026-05-05 15:25 | 42.03596 | 4.01673 | 27948 ft | 349 kts | 212° |
| 2026-05-05 15:25 | 42.01505 | 4.00151 | 27609 ft | 332 kts | 213° |
| 2026-05-05 15:25 | 41.99526 | 3.98698 | 27271 ft | 318 kts | 213° |
| 2026-05-05 15:25 | 41.97624 | 3.97286 | 26971 ft | 305 kts | 213° |
| 2026-05-05 15:26 | 41.95824 | 3.95966 | 26726 ft | 293 kts | 213° |
| 2026-05-05 15:26 | 41.94005 | 3.94635 | 26501 ft | 302 kts | 213° |
| 2026-05-05 15:26 | 41.92085 | 3.93366 | 26307 ft | 316 kts | 204° |
| 2026-05-05 15:26 | 41.89884 | 3.92699 | 26120 ft | 331 kts | 197° |
| 2026-05-05 15:27 | 41.87577 | 3.92180 | 25937 ft | 341 kts | 196° |
| 2026-05-05 15:27 | 41.85198 | 3.91680 | 25751 ft | 351 kts | 195° |
| 2026-05-05 15:27 | 41.82735 | 3.91184 | 25450 ft | 364 kts | 195° |
| 2026-05-05 15:27 | 41.80188 | 3.90652 | 25143 ft | 377 kts | 195° |
| 2026-05-05 15:28 | 41.77559 | 3.90058 | 24843 ft | 388 kts | 196° |
| 2026-05-05 15:28 | 41.74873 | 3.89430 | 24545 ft | 386 kts | 196° |
| 2026-05-05 15:28 | 41.72281 | 3.88827 | 24234 ft | 370 kts | 196° |
| 2026-05-05 15:28 | 41.69791 | 3.88255 | 23927 ft | 355 kts | 196° |
| 2026-05-05 15:29 | 41.67400 | 3.87716 | 23612 ft | 341 kts | 196° |
| 2026-05-05 15:29 | 41.65138 | 3.87216 | 23382 ft | 326 kts | 196° |
| 2026-05-05 15:29 | 41.62940 | 3.86739 | 23118 ft | 315 kts | 196° |
| 2026-05-05 15:29 | 41.60817 | 3.86260 | 22854 ft | 304 kts | 197° |
| 2026-05-05 15:30 | 41.58720 | 3.85770 | 22606 ft | 307 kts | 197° |
| 2026-05-05 15:30 | 41.56607 | 3.85273 | 22362 ft | 309 kts | 196° |
| 2026-05-05 15:30 | 41.54480 | 3.84790 | 22126 ft | 311 kts | 196° |
| 2026-05-05 15:30 | 41.52343 | 3.84307 | 21890 ft | 312 kts | 196° |
| 2026-05-05 15:31 | 41.50197 | 3.83818 | 21657 ft | 313 kts | 196° |
| 2026-05-05 15:31 | 41.48099 | 3.83337 | 21428 ft | 314 kts | 196° |
| 2026-05-05 15:31 | 41.45944 | 3.82837 | 21192 ft | 314 kts | 196° |
| 2026-05-05 15:31 | 41.43788 | 3.82331 | 20966 ft | 315 kts | 196° |
| 2026-05-05 15:32 | 41.41624 | 3.81817 | 20738 ft | 315 kts | 196° |
| 2026-05-05 15:32 | 41.39461 | 3.81302 | 20511 ft | 316 kts | 195° |
| 2026-05-05 15:32 | 41.37294 | 3.80812 | 20290 ft | 316 kts | 195° |
| 2026-05-05 15:32 | 41.35143 | 3.80330 | 20063 ft | 317 kts | 195° |
| 2026-05-05 15:33 | 41.32965 | 3.79844 | 19843 ft | 317 kts | 195° |
| 2026-05-05 15:33 | 41.30790 | 3.79355 | 19623 ft | 317 kts | 195° |
| 2026-05-05 15:33 | 41.28616 | 3.78862 | 19389 ft | 317 kts | 195° |
| 2026-05-05 15:33 | 41.26423 | 3.78358 | 19028 ft | 322 kts | 195° |
| 2026-05-05 15:34 | 41.24203 | 3.77835 | 18682 ft | 326 kts | 195° |
| 2026-05-05 15:34 | 41.21957 | 3.77295 | 18333 ft | 329 kts | 195° |
| 2026-05-05 15:34 | 41.19690 | 3.76766 | 17958 ft | 332 kts | 194° |
| 2026-05-05 15:34 | 41.17403 | 3.76239 | 17557 ft | 335 kts | 194° |
| 2026-05-05 15:35 | 41.15115 | 3.75656 | 17165 ft | 336 kts | 195° |
| 2026-05-05 15:35 | 41.12809 | 3.75090 | 16778 ft | 338 kts | 193° |
| 2026-05-05 15:35 | 41.10503 | 3.74611 | 16400 ft | 340 kts | 193° |
| 2026-05-05 15:35 | 41.08168 | 3.74117 | 16020 ft | 340 kts | 193° |
| 2026-05-05 15:36 | 41.05825 | 3.73605 | 15645 ft | 341 kts | 193° |
| 2026-05-05 15:36 | 41.03482 | 3.73084 | 15281 ft | 341 kts | 193° |
| 2026-05-05 15:36 | 41.01152 | 3.72559 | 15072 ft | 337 kts | 193° |
| 2026-05-05 15:36 | 40.98866 | 3.72043 | 14973 ft | 330 kts | 193° |
| 2026-05-05 15:37 | 40.96634 | 3.71543 | 14927 ft | 322 kts | 193° |
| 2026-05-05 15:37 | 40.94437 | 3.71071 | 14904 ft | 315 kts | 193° |
| 2026-05-05 15:37 | 40.92296 | 3.70603 | 14887 ft | 308 kts | 193° |
| 2026-05-05 15:37 | 40.90202 | 3.70146 | 14889 ft | 302 kts | 193° |
| 2026-05-05 15:38 | 40.88143 | 3.69698 | 14885 ft | 297 kts | 193° |
| 2026-05-05 15:38 | 40.86119 | 3.69239 | 14886 ft | 292 kts | 194° |
| 2026-05-05 15:38 | 40.84130 | 3.68775 | 14881 ft | 288 kts | 194° |
| 2026-05-05 15:38 | 40.82166 | 3.68319 | 14887 ft | 285 kts | 194° |
| 2026-05-05 15:39 | 40.80218 | 3.67884 | 14889 ft | 282 kts | 194° |
| 2026-05-05 15:39 | 40.78316 | 3.67446 | 14880 ft | 280 kts | 194° |
| 2026-05-05 15:39 | 40.76403 | 3.67010 | 14892 ft | 278 kts | 194° |
| 2026-05-05 15:39 | 40.74502 | 3.66583 | 14895 ft | 276 kts | 194° |
| 2026-05-05 15:40 | 40.72608 | 3.66162 | 14891 ft | 275 kts | 194° |
| 2026-05-05 15:40 | 40.70728 | 3.65736 | 14893 ft | 274 kts | 194° |
| 2026-05-05 15:40 | 40.68901 | 3.65140 | 14894 ft | 268 kts | 205° |
| 2026-05-05 15:40 | 40.67218 | 3.64115 | 14895 ft | 266 kts | 209° |
| 2026-05-05 15:41 | 40.65565 | 3.63041 | 14895 ft | 265 kts | 209° |
| 2026-05-05 15:41 | 40.63914 | 3.61967 | 14897 ft | 264 kts | 209° |
| 2026-05-05 15:41 | 40.62265 | 3.60904 | 14895 ft | 264 kts | 208° |
| 2026-05-05 15:41 | 40.60610 | 3.59858 | 14896 ft | 264 kts | 208° |
| 2026-05-05 15:42 | 40.58954 | 3.58826 | 14894 ft | 263 kts | 208° |
| 2026-05-05 15:42 | 40.57287 | 3.57819 | 14892 ft | 263 kts | 207° |
| 2026-05-05 15:42 | 40.55620 | 3.56827 | 14893 ft | 263 kts | 207° |
| 2026-05-05 15:42 | 40.53978 | 3.55856 | 14895 ft | 263 kts | 207° |
| 2026-05-05 15:43 | 40.52309 | 3.54874 | 14894 ft | 262 kts | 207° |
| 2026-05-05 15:43 | 40.50643 | 3.53896 | 14894 ft | 262 kts | 207° |
| 2026-05-05 15:43 | 40.48974 | 3.52919 | 14893 ft | 262 kts | 207° |
| 2026-05-05 15:43 | 40.47307 | 3.51945 | 14892 ft | 262 kts | 207° |
| 2026-05-05 15:44 | 40.45640 | 3.50970 | 14892 ft | 262 kts | 207° |
| 2026-05-05 15:44 | 40.43981 | 3.49983 | 14894 ft | 262 kts | 207° |
| 2026-05-05 15:44 | 40.42308 | 3.49002 | 14891 ft | 262 kts | 208° |
| 2026-05-05 15:44 | 40.40670 | 3.48033 | 14893 ft | 262 kts | 207° |
| 2026-05-05 15:45 | 40.39008 | 3.47054 | 14896 ft | 262 kts | 207° |
| 2026-05-05 15:45 | 40.37347 | 3.46075 | 14895 ft | 262 kts | 207° |
| 2026-05-05 15:45 | 40.35685 | 3.45097 | 14892 ft | 262 kts | 207° |
| 2026-05-05 15:45 | 40.34015 | 3.44119 | 14897 ft | 270 kts | 207° |
| 2026-05-05 15:46 | 40.32189 | 3.43040 | 14916 ft | 303 kts | 207° |
| 2026-05-05 15:46 | 40.30183 | 3.41851 | 14927 ft | 328 kts | 207° |
| 2026-05-05 15:46 | 40.28032 | 3.40571 | 14931 ft | 348 kts | 207° |
| 2026-05-05 15:46 | 40.25793 | 3.39240 | 14924 ft | 357 kts | 207° |
| 2026-05-05 15:47 | 40.23568 | 3.37960 | 14908 ft | 338 kts | 206° |
| 2026-05-05 15:47 | 40.22169 | 3.37154 | 14908 ft | 327 kts | 207° |
| 2026-05-05 15:47 | 40.19423 | 3.35564 | 14469 ft | 320 kts | 207° |
| 2026-05-05 15:47 | 40.17403 | 3.34389 | 14151 ft | 316 kts | 207° |
| 2026-05-05 15:48 | 40.15403 | 3.33213 | 13833 ft | 313 kts | 207° |
| 2026-05-05 15:48 | 40.13420 | 3.32046 | 13513 ft | 314 kts | 206° |
| 2026-05-05 15:48 | 40.11402 | 3.30883 | 13138 ft | 331 kts | 206° |
| 2026-05-05 15:48 | 40.09242 | 3.29644 | 12705 ft | 344 kts | 206° |
| 2026-05-05 15:49 | 40.07104 | 3.28404 | 12269 ft | 328 kts | 206° |
| 2026-05-05 15:49 | 40.05056 | 3.27214 | 11837 ft | 317 kts | 206° |
| 2026-05-05 15:49 | 40.03071 | 3.26058 | 11405 ft | 307 kts | 206° |
| 2026-05-05 15:49 | 40.01141 | 3.24932 | 10972 ft | 300 kts | 206° |
| 2026-05-05 15:50 | 39.99257 | 3.23827 | 10549 ft | 294 kts | 206° |
| 2026-05-05 15:50 | 39.97402 | 3.22737 | 10139 ft | 290 kts | 206° |
| 2026-05-05 15:50 | 39.95581 | 3.21664 | 9723 ft | 284 kts | 206° |
| 2026-05-05 15:50 | 39.93788 | 3.20633 | 9266 ft | 278 kts | 205° |
| 2026-05-05 15:51 | 39.92057 | 3.19630 | 8826 ft | 273 kts | 206° |
| 2026-05-05 15:51 | 39.90335 | 3.18624 | 8390 ft | 269 kts | 206° |
| 2026-05-05 15:51 | 39.88633 | 3.17631 | 7957 ft | 266 kts | 206° |
| 2026-05-05 15:51 | 39.86954 | 3.16656 | 7537 ft | 261 kts | 206° |
| 2026-05-05 15:52 | 39.85477 | 3.15521 | 7119 ft | 238 kts | 228° |
| 2026-05-05 15:52 | 39.84750 | 3.13651 | 6788 ft | 229 kts | 243° |
| 2026-05-05 15:52 | 39.83469 | 3.12624 | 6576 ft | 225 kts | 196° |
| 2026-05-05 15:52 | 39.82194 | 3.12223 | 6208 ft | 231 kts | 197° |
| 2026-05-05 15:53 | 39.80663 | 3.11772 | 6008 ft | 226 kts | 194° |
| 2026-05-05 15:53 | 39.79110 | 3.11529 | 5931 ft | 231 kts | 190° |
| 2026-05-05 15:53 | 39.77459 | 3.11261 | 5870 ft | 251 kts | 191° |
| 2026-05-05 15:53 | 39.75749 | 3.10753 | 5796 ft | 250 kts | 208° |
| 2026-05-05 15:54 | 39.74326 | 3.09445 | 5369 ft | 248 kts | 221° |
| 2026-05-05 15:54 | 39.73002 | 3.08098 | 5240 ft | 237 kts | 218° |
| 2026-05-05 15:54 | 39.71800 | 3.06727 | 5090 ft | 225 kts | 232° |
| 2026-05-05 15:54 | 39.70869 | 3.05134 | 4941 ft | 218 kts | 236° |
| 2026-05-05 15:55 | 39.70055 | 3.03612 | 4784 ft | 196 kts | 238° |
| 2026-05-05 15:55 | 39.69568 | 3.02638 | 4376 ft | 193 kts | 239° |
| 2026-05-05 15:55 | 39.68865 | 3.01166 | 3750 ft | 191 kts | 239° |
| 2026-05-05 15:55 | 39.68189 | 2.99709 | 3112 ft | 184 kts | 240° |
| 2026-05-05 15:56 | 39.67557 | 2.98331 | 2959 ft | 166 kts | 240° |
| 2026-05-05 15:56 | 39.66995 | 2.97121 | 2954 ft | 152 kts | 239° |
| 2026-05-05 15:56 | 39.66381 | 2.95801 | 2977 ft | 177 kts | 240° |
| 2026-05-05 15:56 | 39.65740 | 2.94428 | 3021 ft | 179 kts | 239° |
| 2026-05-05 15:57 | 39.65084 | 2.93036 | 3034 ft | 186 kts | 239° |
| 2026-05-05 15:57 | 39.64401 | 2.91597 | 3037 ft | 185 kts | 239° |
| 2026-05-05 15:57 | 39.63734 | 2.90195 | 2850 ft | 181 kts | 239° |
| 2026-05-05 15:57 | 39.63101 | 2.88848 | 2624 ft | 170 kts | 240° |
| 2026-05-05 15:58 | 39.62509 | 2.87585 | 2382 ft | 160 kts | 239° |
| 2026-05-05 15:58 | 39.61950 | 2.86388 | 2188 ft | 153 kts | 239° |
| 2026-05-05 15:58 | 39.61397 | 2.85223 | 2008 ft | 153 kts | 239° |
| 2026-05-05 15:58 | 39.60838 | 2.84038 | 1825 ft | 155 kts | 238° |
| 2026-05-05 15:59 | 39.60292 | 2.82891 | 1610 ft | 140 kts | 237° |
| 2026-05-05 15:59 | 39.59811 | 2.81857 | 1428 ft | 129 kts | 238° |
| 2026-05-05 15:59 | 39.59351 | 2.80870 | 1208 ft | 132 kts | 237° |
| 2026-05-05 15:59 | 39.58879 | 2.79857 | 1094 ft | 134 kts | 238° |
| 2026-05-05 16:00 | 39.58385 | 2.78823 | 868 ft | 133 kts | 237° |
| 2026-05-05 16:00 | 39.57907 | 2.77822 | 710 ft | 128 kts | 237° |
| 2026-05-05 16:00 | 39.57431 | 2.76828 | 490 ft | 132 kts | 238° |
| 2026-05-05 16:00 | 39.56962 | 2.75832 | 330 ft | 128 kts | 239° |
| 2026-05-05 16:01 | 39.56503 | 2.74841 | 164 ft | 125 kts | 238° |
| 2026-05-05 16:01 | 39.56087 | 2.73959 | 34 ft | 104 kts | 237° |
| 2026-05-05 16:01 | 39.55738 | 2.73233 | 29 ft | 87 kts | 238° |
| 2026-05-05 16:01 | 39.55466 | 2.72654 | 24 ft | 59 kts | 237° |
| 2026-05-05 16:02 | 39.55345 | 2.72403 | 24 ft | 12 kts | 238° |
| 2026-05-05 16:02 | 39.55286 | 2.72341 | 24 ft | 11 kts | 187° |
| 2026-05-05 16:02 | 39.55223 | 2.72377 | 24 ft | 8 kts | 147° |
| 2026-05-05 16:02 | 39.55189 | 2.72406 | 28 ft | 3 kts | 147° |
| 2026-05-05 16:03 | 39.55184 | 2.72409 | 28 ft | 0 kts | 147° |
| 2026-05-05 16:03 | 39.55183 | 2.72411 | 28 ft | 0 kts | 147° |
| 2026-05-05 16:03 | 39.55177 | 2.72415 | 25 ft | 3 kts | 153° |
| 2026-05-05 16:04 | 39.55134 | 2.72395 | 27 ft | 12 kts | 233° |
| 2026-05-05 16:04 | 39.55083 | 2.72287 | 29 ft | 17 kts | 238° |
| 2026-05-05 16:04 | 39.55017 | 2.72148 | 26 ft | 18 kts | 238° |
| 2026-05-05 16:04 | 39.54958 | 2.72022 | 26 ft | 15 kts | 238° |
| 2026-05-05 16:05 | 39.54907 | 2.71921 | 26 ft | 11 kts | 233° |
| 2026-05-05 16:05 | 39.54865 | 2.71834 | 26 ft | 15 kts | 239° |
| 2026-05-05 16:05 | 39.54794 | 2.71755 | 27 ft | 12 kts | 159° |
| 2026-05-05 16:05 | 39.54732 | 2.71733 | 28 ft | 10 kts | 238° |
| 2026-05-05 16:06 | 39.54686 | 2.71635 | 28 ft | 19 kts | 240° |
| 2026-05-05 16:06 | 39.54601 | 2.71456 | 28 ft | 20 kts | 238° |
| 2026-05-05 16:06 | 39.54564 | 2.71426 | 28 ft | 2 kts | 136° |
| 2026-05-05 16:06 | 39.54547 | 2.71442 | 29 ft | 5 kts | 147° |
| 2026-05-05 16:07 | 39.54516 | 2.71459 | 30 ft | 3 kts | 206° |
| 2026-05-05 16:07 | 39.54522 | 2.71447 | 30 ft | 3 kts | 339° |
| 2026-05-05 16:07 | 39.54527 | 2.71444 | 29 ft | 0 kts | 334° |